createdAt,value
2018-09-10T00:00:26.374Z,13.60
2018-09-10T00:01:26.388Z,13.72
2018-09-10T00:02:26.411Z,13.67
2018-09-10T00:03:26.428Z,13.56
2018-09-10T00:04:26.462Z,13.74
2018-09-10T00:05:26.463Z,13.67
2018-09-10T00:06:26.475Z,13.79
2018-09-10T00:07:26.496Z,13.95
2018-09-10T00:08:26.530Z,14.03
2018-09-10T00:09:26.531Z,13.95
2018-09-10T00:10:26.558Z,13.53
2018-09-10T00:11:26.579Z,13.27
2018-09-10T00:12:26.594Z,13.15
2018-09-10T00:13:26.606Z,13.16
2018-09-10T00:14:26.627Z,13.08
2018-09-10T00:15:26.641Z,13.22
2018-09-10T00:16:26.657Z,13.30
2018-09-10T00:17:26.681Z,13.12
2018-09-10T00:18:26.698Z,13.12
2018-09-10T00:19:26.717Z,13.16
2018-09-10T00:20:26.730Z,13.16
2018-09-10T00:21:26.761Z,13.05
2018-09-10T00:22:26.762Z,13.22
2018-09-10T00:23:26.784Z,13.13
2018-09-10T00:24:26.805Z,13.39
2018-09-10T00:25:26.824Z,13.13
2018-09-10T00:26:26.841Z,13.19
2018-09-10T00:27:26.859Z,13.28
2018-09-10T00:28:26.870Z,13.38
2018-09-10T00:29:26.890Z,13.22
2018-09-10T00:30:26.906Z,12.98
2018-09-10T00:31:26.929Z,12.98
2018-09-10T00:32:26.951Z,13.09
2018-09-10T00:33:26.973Z,13.09
2018-09-10T00:34:26.986Z,13.22
2018-09-10T00:35:26.996Z,13.35
2018-09-10T00:36:27.057Z,13.27
2018-09-10T00:37:27.034Z,13.33
2018-09-10T00:38:27.051Z,13.50
2018-09-10T00:39:27.087Z,13.57
2018-09-10T00:40:27.093Z,13.42
2018-09-10T00:41:27.110Z,13.49
2018-09-10T00:42:27.125Z,13.44
2018-09-10T00:43:27.148Z,13.23
2018-09-10T00:44:27.167Z,13.25
2018-09-10T00:45:27.180Z,13.33
2018-09-10T00:46:27.192Z,13.46
2018-09-10T00:47:27.213Z,13.49
2018-09-10T00:48:27.232Z,13.57
2018-09-10T00:49:27.266Z,13.59
2018-09-10T00:50:27.287Z,13.47
2018-09-10T00:51:27.301Z,13.41
2018-09-10T00:52:27.307Z,13.27
2018-09-10T00:53:27.319Z,13.50
2018-09-10T00:54:27.335Z,13.71
2018-09-10T00:55:27.359Z,13.71
2018-09-10T00:56:27.393Z,13.89
2018-09-10T00:57:27.387Z,13.81
2018-09-10T00:58:27.410Z,13.96
2018-09-10T00:59:27.432Z,13.86
2018-09-10T01:00:27.442Z,13.95
2018-09-10T01:01:27.467Z,13.93
2018-09-10T01:02:27.478Z,13.83
2018-09-10T01:03:27.496Z,13.96
2018-09-10T01:04:27.517Z,14.04
2018-09-10T01:05:27.534Z,14.11
2018-09-10T01:06:27.557Z,14.14
2018-09-10T01:07:27.571Z,14.15
2018-09-10T01:08:27.609Z,14.18
2018-09-10T01:09:27.617Z,14.10
2018-09-10T01:10:27.645Z,14.12
2018-09-10T01:11:27.642Z,14.10
2018-09-10T01:12:27.657Z,14.14
2018-09-10T01:13:27.704Z,14.22
2018-09-10T01:14:27.706Z,14.33
2018-09-10T01:15:27.710Z,14.32
2018-09-10T01:16:27.756Z,14.35
2018-09-10T01:17:27.802Z,14.33
2018-09-10T01:18:27.787Z,14.37
2018-09-10T01:19:27.782Z,14.12
2018-09-10T01:20:27.809Z,14.22
2018-09-10T01:21:27.825Z,14.33
2018-09-10T01:22:27.856Z,14.17
2018-09-10T01:23:27.861Z,14.15
2018-09-10T01:24:27.872Z,14.20
2018-09-10T01:25:27.893Z,14.17
2018-09-10T01:26:27.921Z,14.22
2018-09-10T01:27:27.924Z,14.18
2018-09-10T01:28:27.943Z,14.18
2018-09-10T01:29:27.963Z,13.92
2018-09-10T01:30:27.984Z,14.12
2018-09-10T01:31:27.998Z,14.10
2018-09-10T01:32:28.019Z,14.14
2018-09-10T01:33:28.051Z,14.07
2018-09-10T01:34:28.049Z,14.17
2018-09-10T01:35:28.066Z,14.11
2018-09-10T01:36:28.091Z,14.22
2018-09-10T01:37:28.104Z,14.18
2018-09-10T01:38:28.118Z,14.14
2018-09-10T01:39:28.147Z,14.25
2018-09-10T01:40:28.217Z,14.29
2018-09-10T01:41:28.179Z,14.20
2018-09-10T01:42:28.205Z,14.20
2018-09-10T01:43:28.211Z,14.15
2018-09-10T01:44:28.228Z,14.28
2018-09-10T01:45:28.243Z,14.28
2018-09-10T01:46:28.267Z,14.37
2018-09-10T01:47:28.286Z,14.26
2018-09-10T01:48:28.302Z,14.20
2018-09-10T01:49:28.372Z,14.35
2018-09-10T01:50:28.420Z,14.23
2018-09-10T01:51:28.360Z,14.30
2018-09-10T01:52:28.388Z,14.30
2018-09-10T01:53:28.394Z,14.28
2018-09-10T01:54:28.457Z,14.11
2018-09-10T01:55:28.430Z,14.11
2018-09-10T01:56:28.451Z,14.14
2018-09-10T01:57:28.464Z,14.17
2018-09-10T01:58:28.479Z,14.30
2018-09-10T01:59:28.504Z,14.20
2018-09-10T02:00:28.519Z,14.05
2018-09-10T02:01:28.529Z,14.00
2018-09-10T02:02:28.552Z,14.08
2018-09-10T02:03:28.569Z,14.14
2018-09-10T02:04:28.586Z,14.15
2018-09-10T02:05:28.610Z,14.18
2018-09-10T02:06:28.622Z,14.25
2018-09-10T02:07:28.646Z,14.28
2018-09-10T02:08:28.664Z,14.26
2018-09-10T02:09:28.678Z,14.12
2018-09-10T02:10:28.691Z,14.18
2018-09-10T02:11:28.715Z,14.18
2018-09-10T02:12:28.729Z,14.17
2018-09-10T02:13:28.746Z,14.23
2018-09-10T02:14:28.768Z,14.25
2018-09-10T02:15:28.791Z,14.10
2018-09-10T02:16:28.807Z,14.10
2018-09-10T02:17:28.839Z,14.11
2018-09-10T02:18:28.837Z,14.10
2018-09-10T02:19:28.851Z,14.22
2018-09-10T02:20:28.901Z,14.22
2018-09-10T02:21:28.893Z,14.35
2018-09-10T02:22:28.930Z,14.33
2018-09-10T02:23:28.951Z,14.33
2018-09-10T02:24:28.948Z,14.36
2018-09-10T02:25:28.962Z,14.33
2018-09-10T02:26:29.000Z,14.30
2018-09-10T02:27:29.038Z,14.33
2018-09-10T02:28:29.020Z,14.15
2018-09-10T02:29:29.036Z,14.26
2018-09-10T02:30:29.060Z,14.30
2018-09-10T02:31:29.070Z,14.23
2018-09-10T02:32:29.089Z,14.36
2018-09-10T02:33:29.107Z,14.48
2018-09-10T02:34:29.126Z,14.54
2018-09-10T02:35:29.143Z,14.50
2018-09-10T02:36:29.168Z,14.48
2018-09-10T02:37:29.181Z,14.58
2018-09-10T02:38:29.242Z,14.66
2018-09-10T02:39:29.216Z,14.66
2018-09-10T02:40:29.235Z,14.69
2018-09-10T02:41:29.252Z,14.78
2018-09-10T02:42:29.271Z,14.69
2018-09-10T02:43:29.288Z,14.62
2018-09-10T02:44:29.306Z,14.73
2018-09-10T02:45:29.331Z,14.72
2018-09-10T02:46:29.339Z,14.60
2018-09-10T02:47:29.357Z,14.65
2018-09-10T02:48:29.389Z,14.65
2018-09-10T02:49:29.395Z,14.65
2018-09-10T02:50:29.420Z,14.50
2018-09-10T02:51:29.449Z,14.43
2018-09-10T02:52:29.452Z,14.59
2018-09-10T02:53:29.466Z,14.62
2018-09-10T02:54:29.485Z,14.50
2018-09-10T02:55:29.501Z,14.55
2018-09-10T02:56:29.520Z,14.63
2018-09-10T02:57:29.539Z,14.79
2018-09-10T02:58:29.556Z,14.51
2018-09-10T02:59:29.576Z,14.62
2018-09-10T03:00:29.601Z,14.77
2018-09-10T03:01:29.610Z,14.77
2018-09-10T03:02:29.628Z,14.69
2018-09-10T03:03:29.645Z,14.69
2018-09-10T03:04:29.667Z,14.77
2018-09-10T03:05:29.681Z,14.73
2018-09-10T03:06:29.702Z,14.70
2018-09-10T03:07:29.717Z,14.73
2018-09-10T03:08:29.736Z,14.89
2018-09-10T03:09:29.761Z,14.86
2018-09-10T03:10:29.773Z,14.78
2018-09-10T03:11:29.807Z,14.73
2018-09-10T03:12:29.816Z,14.62
2018-09-10T03:13:29.826Z,14.73
2018-09-10T03:14:29.849Z,14.70
2018-09-10T03:15:29.872Z,14.85
2018-09-10T03:16:29.881Z,14.85
2018-09-10T03:17:29.896Z,14.77
2018-09-10T03:18:29.918Z,14.79
2018-09-10T03:19:29.942Z,14.88
2018-09-10T03:20:29.959Z,14.85
2018-09-10T03:21:29.979Z,14.70
2018-09-10T03:22:29.987Z,14.48
2018-09-10T03:23:30.007Z,14.69
2018-09-10T03:24:30.028Z,14.66
2018-09-10T03:25:30.056Z,14.63
2018-09-10T03:26:30.065Z,14.63
2018-09-10T03:27:30.079Z,14.63
2018-09-10T03:28:30.100Z,14.63
2018-09-10T03:29:30.122Z,14.53
2018-09-10T03:30:30.135Z,14.72
2018-09-10T03:31:30.154Z,14.85
2018-09-10T03:32:30.170Z,14.79
2018-09-10T03:33:30.221Z,14.69
2018-09-10T03:34:30.219Z,14.41
2018-09-10T03:35:30.223Z,14.50
2018-09-10T03:36:30.241Z,14.48
2018-09-10T03:37:30.279Z,14.50
2018-09-10T03:38:30.287Z,14.54
2018-09-10T03:39:30.314Z,14.51
2018-09-10T03:40:30.316Z,14.65
2018-09-10T03:41:30.338Z,14.70
2018-09-10T03:42:30.348Z,14.73
2018-09-10T03:43:30.376Z,14.73
2018-09-10T03:44:30.391Z,14.54
2018-09-10T03:45:30.416Z,14.48
2018-09-10T03:46:30.424Z,14.63
2018-09-10T03:47:30.468Z,14.69
2018-09-10T03:48:30.457Z,14.82
2018-09-10T03:49:30.509Z,14.72
2018-09-10T03:50:30.501Z,14.72
2018-09-10T03:51:30.511Z,14.63
2018-09-10T03:52:30.554Z,14.48
2018-09-10T03:53:30.553Z,14.70
2018-09-10T03:54:30.572Z,14.48
2018-09-10T03:55:30.581Z,14.47
2018-09-10T03:56:30.609Z,14.65
2018-09-10T03:57:30.621Z,14.62
2018-09-10T03:58:30.641Z,14.78
2018-09-10T03:59:30.656Z,14.51
2018-09-10T04:00:30.676Z,14.68
2018-09-10T04:01:30.690Z,14.69
2018-09-10T04:02:30.712Z,14.73
2018-09-10T04:03:30.735Z,14.85
2018-09-10T04:04:30.757Z,14.69
2018-09-10T04:05:30.780Z,14.55
2018-09-10T04:06:30.785Z,14.70
2018-09-10T04:07:30.799Z,14.81
2018-09-10T04:08:30.818Z,14.32
2018-09-10T04:09:30.836Z,14.59
2018-09-10T04:10:30.852Z,14.66
2018-09-10T04:11:30.879Z,14.77
2018-09-10T04:12:30.892Z,14.69
2018-09-10T04:13:30.909Z,14.66
2018-09-10T04:14:30.927Z,14.78
2018-09-10T04:15:30.943Z,14.86
2018-09-10T04:16:30.973Z,15.00
2018-09-10T04:17:30.984Z,15.02
2018-09-10T04:18:31.012Z,14.97
2018-09-10T04:19:31.021Z,14.89
2018-09-10T04:20:31.050Z,14.85
2018-09-10T04:21:31.053Z,14.68
2018-09-10T04:22:31.067Z,14.78
2018-09-10T04:23:31.087Z,14.72
2018-09-10T04:24:31.102Z,14.70
2018-09-10T04:25:31.130Z,14.66
2018-09-10T04:26:31.164Z,14.79
2018-09-10T04:27:31.167Z,14.78
2018-09-10T04:28:31.186Z,14.85
2018-09-10T04:29:31.204Z,14.78
2018-09-10T04:30:31.211Z,14.68
2018-09-10T04:31:31.231Z,14.78
2018-09-10T04:32:32.100Z,14.85
2018-09-10T04:33:31.273Z,14.99
2018-09-10T04:34:31.294Z,15.00
2018-09-10T04:35:31.316Z,14.88
2018-09-10T04:36:31.323Z,14.96
2018-09-10T04:37:31.336Z,14.68
2018-09-10T04:38:31.374Z,14.70
2018-09-10T04:39:31.376Z,14.77
2018-09-10T04:40:31.423Z,14.85
2018-09-10T04:41:31.419Z,14.89
2018-09-10T04:42:31.450Z,14.99
2018-09-10T04:43:31.448Z,14.91
2018-09-10T04:44:31.489Z,14.73
2018-09-10T04:45:31.483Z,14.84
2018-09-10T04:46:31.510Z,14.85
2018-09-10T04:47:31.527Z,14.94
2018-09-10T04:48:31.546Z,15.24
2018-09-10T04:49:31.691Z,15.15
2018-09-10T04:50:31.575Z,15.17
2018-09-10T04:51:31.606Z,15.09
2018-09-10T04:52:31.621Z,15.21
2018-09-10T04:53:31.630Z,15.33
2018-09-10T04:54:31.646Z,15.36
2018-09-10T04:55:31.671Z,15.37
2018-09-10T04:56:31.698Z,15.43
2018-09-10T04:57:31.707Z,15.46
2018-09-10T04:58:31.723Z,15.44
2018-09-10T04:59:31.737Z,15.59
2018-09-10T05:00:31.772Z,15.54
2018-09-10T05:01:31.788Z,15.40
2018-09-10T05:02:31.801Z,15.52
2018-09-10T05:03:31.814Z,15.73
2018-09-10T05:04:31.899Z,15.72
2018-09-10T05:05:31.849Z,15.59
2018-09-10T05:06:31.867Z,15.64
2018-09-10T05:07:31.884Z,15.72
2018-09-10T05:08:31.904Z,15.83
2018-09-10T05:09:31.919Z,15.83
2018-09-10T05:10:31.939Z,15.67
2018-09-10T05:11:31.961Z,15.83
2018-09-10T05:12:31.979Z,15.83
2018-09-10T05:13:31.992Z,15.95
2018-09-10T05:14:32.014Z,15.86
2018-09-10T05:15:32.030Z,15.86
2018-09-10T05:16:32.053Z,15.83
2018-09-10T05:17:32.067Z,15.84
2018-09-10T05:18:32.088Z,15.68
2018-09-10T05:19:32.117Z,15.92
2018-09-10T05:20:32.128Z,16.05
2018-09-10T05:21:32.144Z,15.86
2018-09-10T05:22:32.159Z,15.92
2018-09-10T05:23:32.181Z,16.01
2018-09-10T05:24:32.204Z,15.72
2018-09-10T05:25:32.224Z,15.92
2018-09-10T05:26:32.244Z,16.02
2018-09-10T05:27:32.252Z,16.20
2018-09-10T05:28:32.273Z,16.15
2018-09-10T05:29:32.291Z,16.36
2018-09-10T05:30:32.308Z,16.24
2018-09-10T05:31:32.329Z,16.26
2018-09-10T05:32:32.358Z,16.38
2018-09-10T05:33:32.362Z,16.47
2018-09-10T05:34:32.392Z,16.56
2018-09-10T05:35:32.401Z,16.66
2018-09-10T05:36:32.420Z,16.65
2018-09-10T05:37:32.438Z,16.87
2018-09-10T05:38:32.456Z,16.89
2018-09-10T05:39:32.479Z,16.87
2018-09-10T05:40:32.490Z,16.86
2018-09-10T05:41:32.534Z,16.83
2018-09-10T05:42:32.536Z,16.99
2018-09-10T05:43:32.556Z,17.12
2018-09-10T05:44:32.576Z,16.96
2018-09-10T05:45:32.590Z,16.96
2018-09-10T05:46:32.619Z,16.99
2018-09-10T05:47:32.670Z,17.11
2018-09-10T05:48:32.651Z,17.16
2018-09-10T05:49:32.668Z,17.27
2018-09-10T05:50:32.686Z,17.08
2018-09-10T05:51:32.703Z,17.26
2018-09-10T05:52:32.724Z,17.27
2018-09-10T05:53:32.745Z,17.34
2018-09-10T05:54:32.768Z,17.46
2018-09-10T05:55:32.851Z,17.49
2018-09-10T05:56:32.804Z,17.67
2018-09-10T05:57:32.818Z,17.65
2018-09-10T05:58:32.857Z,17.86
2018-09-10T05:59:32.852Z,18.00
2018-09-10T06:00:32.875Z,17.95
2018-09-10T06:01:32.893Z,18.08
2018-09-10T06:02:32.916Z,18.07
2018-09-10T06:03:32.929Z,18.05
2018-09-10T06:04:32.951Z,18.15
2018-09-10T06:05:32.980Z,18.25
2018-09-10T06:06:32.992Z,18.26
2018-09-10T06:07:33.008Z,18.20
2018-09-10T06:08:33.026Z,18.23
2018-09-10T06:09:33.048Z,18.44
2018-09-10T06:10:33.089Z,18.52
2018-09-10T06:11:33.082Z,18.66
2018-09-10T06:12:33.102Z,18.58
2018-09-10T06:13:33.129Z,18.62
2018-09-10T06:14:33.150Z,18.41
2018-09-10T06:15:33.165Z,18.44
2018-09-10T06:16:33.241Z,18.60
2018-09-10T06:17:33.201Z,18.73
2018-09-10T06:18:33.221Z,18.65
2018-09-10T06:19:33.239Z,18.77
2018-09-10T06:20:33.269Z,18.60
2018-09-10T06:21:33.276Z,18.75
2018-09-10T06:22:33.299Z,18.96
2018-09-10T06:23:33.318Z,19.15
2018-09-10T06:24:33.336Z,19.21
2018-09-10T06:25:33.355Z,19.39
2018-09-10T06:26:33.384Z,19.37
2018-09-10T06:27:33.397Z,19.54
2018-09-10T06:28:33.421Z,19.67
2018-09-10T06:29:33.438Z,19.70
2018-09-10T06:30:33.461Z,19.79
2018-09-10T06:31:33.478Z,19.85
2018-09-10T06:32:33.497Z,20.03
2018-09-10T06:33:33.519Z,19.81
2018-09-10T06:34:33.547Z,20.02
2018-09-10T06:35:33.564Z,19.99
2018-09-10T06:36:33.579Z,20.00
2018-09-10T06:37:33.601Z,20.19
2018-09-10T06:38:33.641Z,20.19
2018-09-10T06:39:33.641Z,20.22
2018-09-10T06:40:33.657Z,20.24
2018-09-10T06:41:33.682Z,20.41
2018-09-10T06:42:33.694Z,20.50
2018-09-10T06:43:33.721Z,20.58
2018-09-10T06:44:33.736Z,20.56
2018-09-10T06:45:33.761Z,20.52
2018-09-10T06:46:33.775Z,20.50
2018-09-10T06:47:33.808Z,20.40
2018-09-10T06:48:33.821Z,20.50
2018-09-10T06:49:33.841Z,20.59
2018-09-10T06:50:33.874Z,20.70
2018-09-10T06:51:33.883Z,20.69
2018-09-10T06:52:33.904Z,20.72
2018-09-10T06:53:33.939Z,20.84
2018-09-10T06:54:33.940Z,20.62
2018-09-10T06:55:33.961Z,20.25
2018-09-10T06:56:33.981Z,20.19
2018-09-10T06:57:34.003Z,20.39
2018-09-10T06:58:34.022Z,20.65
2018-09-10T06:59:34.045Z,20.74
2018-09-10T07:00:34.067Z,20.60
2018-09-10T07:01:34.092Z,20.70
2018-09-10T07:02:34.100Z,20.69
2018-09-10T07:03:34.120Z,20.41
2018-09-10T07:04:34.146Z,20.19
2018-09-10T07:05:34.160Z,20.43
2018-09-10T07:06:34.212Z,20.41
2018-09-10T07:07:34.201Z,20.59
2018-09-10T07:08:34.229Z,20.60
2018-09-10T07:09:34.244Z,20.37
2018-09-10T07:10:34.270Z,20.18
2018-09-10T07:11:34.291Z,20.11
2018-09-10T07:12:34.306Z,20.14
2018-09-10T07:13:34.323Z,20.14
2018-09-10T07:14:34.354Z,20.40
2018-09-10T07:15:34.366Z,20.29
2018-09-10T07:16:34.393Z,20.37
2018-09-10T07:17:34.411Z,20.32
2018-09-10T07:18:34.445Z,20.56
2018-09-10T07:19:34.459Z,20.58
2018-09-10T07:20:34.466Z,20.28
2018-09-10T07:21:34.496Z,20.26
2018-09-10T07:22:34.534Z,20.18
2018-09-10T07:23:34.532Z,20.32
2018-09-10T07:24:34.567Z,20.36
2018-09-10T07:25:34.584Z,20.31
2018-09-10T07:26:34.590Z,20.18
2018-09-10T07:27:34.623Z,20.32
2018-09-10T07:28:34.627Z,20.25
2018-09-10T07:29:34.646Z,20.26
2018-09-10T07:30:34.676Z,20.56
2018-09-10T07:31:34.688Z,20.28
2018-09-10T07:32:34.705Z,20.36
2018-09-10T07:33:34.733Z,20.47
2018-09-10T07:34:34.821Z,20.31
2018-09-10T07:35:34.774Z,20.44
2018-09-10T07:36:34.791Z,20.51
2018-09-10T07:37:34.809Z,20.50
2018-09-10T07:38:34.829Z,20.55
2018-09-10T07:39:34.852Z,20.70
2018-09-10T07:40:34.867Z,20.72
2018-09-10T07:41:34.889Z,20.69
2018-09-10T07:42:34.907Z,20.69
2018-09-10T07:43:34.971Z,20.74
2018-09-10T07:44:34.948Z,20.95
2018-09-10T07:45:34.975Z,21.00
2018-09-10T07:46:34.985Z,21.00
2018-09-10T07:47:35.011Z,21.03
2018-09-10T07:48:35.032Z,20.81
2018-09-10T07:49:35.048Z,20.97
2018-09-10T07:50:35.076Z,20.99
2018-09-10T07:51:35.107Z,20.95
2018-09-10T07:52:35.112Z,20.95
2018-09-10T07:53:35.137Z,21.06
2018-09-10T07:54:35.166Z,21.02
2018-09-10T07:55:35.186Z,21.12
2018-09-10T07:56:35.193Z,21.05
2018-09-10T07:57:35.212Z,21.14
2018-09-10T07:58:35.234Z,21.45
2018-09-10T07:59:35.264Z,21.62
2018-09-10T08:00:35.274Z,21.72
2018-09-10T08:01:35.299Z,21.67
2018-09-10T08:02:35.315Z,21.85
2018-09-10T08:03:35.340Z,21.58
2018-09-10T08:04:35.352Z,21.82
2018-09-10T08:05:35.381Z,21.76
2018-09-10T08:06:35.397Z,21.46
2018-09-10T08:07:35.417Z,21.75
2018-09-10T08:08:35.441Z,21.95
2018-09-10T08:09:35.508Z,22.11
2018-09-10T08:10:35.480Z,22.18
2018-09-10T08:11:35.497Z,22.29
2018-09-10T08:12:35.527Z,21.96
2018-09-10T08:13:35.539Z,21.89
2018-09-10T08:14:35.565Z,21.73
2018-09-10T08:15:35.580Z,21.50
2018-09-10T08:16:35.676Z,21.54
2018-09-10T08:17:35.623Z,21.58
2018-09-10T08:18:35.647Z,21.52
2018-09-10T08:19:35.665Z,21.64
2018-09-10T08:20:35.687Z,21.60
2018-09-10T08:21:35.726Z,21.39
2018-09-10T08:22:35.729Z,21.52
2018-09-10T08:23:35.749Z,21.55
2018-09-10T08:24:35.775Z,21.89
2018-09-10T08:25:35.788Z,22.10
2018-09-10T08:26:35.813Z,22.81
2018-09-10T08:27:35.827Z,23.43
2018-09-10T08:28:35.853Z,23.73
2018-09-10T08:29:35.872Z,24.13
2018-09-10T08:30:35.960Z,24.63
2018-09-10T08:31:35.912Z,25.10
2018-09-10T08:32:35.936Z,25.26
2018-09-10T08:33:35.952Z,25.35
2018-09-10T08:34:35.993Z,25.69
2018-09-10T08:35:36.021Z,25.41
2018-09-10T08:36:36.022Z,25.72
2018-09-10T08:37:36.040Z,25.87
2018-09-10T08:38:36.073Z,26.06
2018-09-10T08:39:36.079Z,25.77
2018-09-10T08:40:36.106Z,25.13
2018-09-10T08:41:36.129Z,25.46
2018-09-10T08:42:36.153Z,25.18
2018-09-10T08:43:36.174Z,25.48
2018-09-10T08:44:36.193Z,25.13
2018-09-10T08:45:36.217Z,24.88
2018-09-10T08:46:36.238Z,25.03
2018-09-10T08:47:36.263Z,25.50
2018-09-10T08:48:36.293Z,25.25
2018-09-10T08:49:36.303Z,24.63
2018-09-10T08:50:36.331Z,24.74
2018-09-10T08:51:36.347Z,25.36
2018-09-10T08:52:36.375Z,25.60
2018-09-10T08:53:36.393Z,26.41
2018-09-10T08:54:36.596Z,26.70
2018-09-10T08:55:36.553Z,26.70
2018-09-10T08:56:36.469Z,26.60
2018-09-10T08:57:36.486Z,26.33
2018-09-10T08:58:36.534Z,26.52
2018-09-10T08:59:36.533Z,26.43
2018-09-10T09:00:36.558Z,26.99
2018-09-10T09:01:36.582Z,26.55
2018-09-10T09:02:36.611Z,26.40
2018-09-10T09:03:36.632Z,26.44
2018-09-10T09:04:36.648Z,26.19
2018-09-10T09:05:36.682Z,26.63
2018-09-10T09:06:36.705Z,27.08
2018-09-10T09:07:36.738Z,27.59
2018-09-10T09:08:36.767Z,27.83
2018-09-10T09:09:36.786Z,27.30
2018-09-10T09:10:36.787Z,27.14
2018-09-10T09:11:36.826Z,26.38
2018-09-10T09:12:36.839Z,26.26
2018-09-10T09:13:36.861Z,26.58
2018-09-10T09:14:36.882Z,27.07
2018-09-10T09:15:36.907Z,26.52
2018-09-10T09:16:36.928Z,25.81
2018-09-10T09:17:37.015Z,25.83
2018-09-10T09:18:36.976Z,25.90
2018-09-10T09:19:37.004Z,26.15
2018-09-10T09:20:37.021Z,26.19
2018-09-10T09:21:37.045Z,26.07
2018-09-10T09:22:37.076Z,26.22
2018-09-10T09:23:37.178Z,25.93
2018-09-10T09:24:37.119Z,26.36
2018-09-10T09:25:37.142Z,26.66
2018-09-10T09:26:37.160Z,26.95
2018-09-10T09:27:37.191Z,26.95
2018-09-10T09:28:37.210Z,26.74
2018-09-10T09:29:37.243Z,26.51
2018-09-10T09:30:37.255Z,26.28
2018-09-10T09:31:37.280Z,26.52
2018-09-10T09:32:37.345Z,26.26
2018-09-10T09:33:37.321Z,26.62
2018-09-10T09:34:37.356Z,26.80
2018-09-10T09:35:37.382Z,26.95
2018-09-10T09:36:37.410Z,26.83
2018-09-10T09:37:37.420Z,26.74
2018-09-10T09:38:37.440Z,26.60
2018-09-10T09:39:37.471Z,26.60
2018-09-10T09:40:37.491Z,26.56
2018-09-10T09:41:37.512Z,26.95
2018-09-10T09:42:37.533Z,26.95
2018-09-10T09:43:37.566Z,26.92
2018-09-10T09:44:37.579Z,27.15
2018-09-10T09:45:37.604Z,27.55
2018-09-10T09:46:37.626Z,27.58
2018-09-10T09:47:37.649Z,27.59
2018-09-10T09:48:37.674Z,27.67
2018-09-10T09:49:37.698Z,27.21
2018-09-10T09:50:37.726Z,27.35
2018-09-10T09:51:37.747Z,27.15
2018-09-10T09:52:37.771Z,27.35
2018-09-10T09:53:37.799Z,27.14
2018-09-10T09:54:37.818Z,27.18
2018-09-10T09:55:37.843Z,27.21
2018-09-10T09:56:37.868Z,27.15
2018-09-10T09:57:37.887Z,27.21
2018-09-10T09:58:37.936Z,27.37
2018-09-10T09:59:37.933Z,27.52
2018-09-10T10:00:37.964Z,27.39
2018-09-10T10:01:37.976Z,27.54
2018-09-10T10:02:37.999Z,27.85
2018-09-10T10:03:38.041Z,27.58
2018-09-10T10:04:38.151Z,27.58
2018-09-10T10:05:38.076Z,27.70
2018-09-10T10:06:38.100Z,28.08
2018-09-10T10:07:38.126Z,27.77
2018-09-10T10:08:38.148Z,27.98
2018-09-10T10:09:38.168Z,27.40
2018-09-10T10:10:38.198Z,26.83
2018-09-10T10:11:38.270Z,26.73
2018-09-10T10:12:38.244Z,26.97
2018-09-10T10:13:38.281Z,27.30
2018-09-10T10:14:38.293Z,27.89
2018-09-10T10:15:38.315Z,27.86
2018-09-10T10:16:38.343Z,27.85
2018-09-10T10:17:38.357Z,27.67
2018-09-10T10:18:38.383Z,27.82
2018-09-10T10:19:38.412Z,27.83
2018-09-10T10:20:38.429Z,27.65
2018-09-10T10:21:38.454Z,27.29
2018-09-10T10:22:38.481Z,27.70
2018-09-10T10:23:38.522Z,27.89
2018-09-10T10:24:38.532Z,27.98
2018-09-10T10:25:38.556Z,27.71
2018-09-10T10:26:38.578Z,27.18
2018-09-10T10:27:38.608Z,27.86
2018-09-10T10:28:38.622Z,28.01
2018-09-10T10:29:38.653Z,28.07
2018-09-10T10:30:38.669Z,27.75
2018-09-10T10:31:38.694Z,27.93
2018-09-10T10:32:38.721Z,27.96
2018-09-10T10:33:38.736Z,27.68
2018-09-10T10:34:38.764Z,27.86
2018-09-10T10:35:38.787Z,27.52
2018-09-10T10:36:38.815Z,27.58
2018-09-10T10:37:38.837Z,27.52
2018-09-10T10:38:38.859Z,27.35
2018-09-10T10:39:38.891Z,27.40
2018-09-10T10:40:38.913Z,27.60
2018-09-10T10:41:38.931Z,27.40
2018-09-10T10:42:38.955Z,27.25
2018-09-10T10:43:38.978Z,27.14
2018-09-10T10:44:38.999Z,26.85
2018-09-10T10:45:39.030Z,26.96
2018-09-10T10:46:39.052Z,27.12
2018-09-10T10:47:39.073Z,27.37
2018-09-10T10:48:39.099Z,27.73
2018-09-10T10:49:39.119Z,28.05
2018-09-10T10:50:39.149Z,28.27
2018-09-10T10:51:39.169Z,28.05
2018-09-10T10:52:39.201Z,27.70
2018-09-10T10:53:39.258Z,27.63
2018-09-10T10:54:39.241Z,27.85
2018-09-10T10:55:39.266Z,28.27
2018-09-10T10:56:39.288Z,28.54
2018-09-10T10:57:39.308Z,28.60
2018-09-10T10:58:39.332Z,28.75
2018-09-10T10:59:39.359Z,28.82
2018-09-10T11:00:39.391Z,28.89
2018-09-10T11:01:39.407Z,28.81
2018-09-10T11:02:39.437Z,28.78
2018-09-10T11:03:39.457Z,28.67
2018-09-10T11:04:39.479Z,28.78
2018-09-10T11:05:39.501Z,28.57
2018-09-10T11:06:39.536Z,28.48
2018-09-10T11:07:39.557Z,28.00
2018-09-10T11:08:39.581Z,27.63
2018-09-10T11:09:39.601Z,28.01
2018-09-10T11:10:39.626Z,27.98
2018-09-10T11:11:39.644Z,27.86
2018-09-10T11:12:39.671Z,27.44
2018-09-10T11:13:39.695Z,27.37
2018-09-10T11:14:39.719Z,27.82
2018-09-10T11:15:39.742Z,27.96
2018-09-10T11:16:39.777Z,28.14
2018-09-10T11:17:39.795Z,28.19
2018-09-10T11:18:39.818Z,27.95
2018-09-10T11:19:39.839Z,27.65
2018-09-10T11:20:39.877Z,27.89
2018-09-10T11:21:39.885Z,27.65
2018-09-10T11:22:39.924Z,27.85
2018-09-10T11:23:39.954Z,27.52
2018-09-10T11:24:39.970Z,27.47
2018-09-10T11:25:39.978Z,27.63
2018-09-10T11:26:40.007Z,27.93
2018-09-10T11:27:40.096Z,27.83
2018-09-10T11:28:40.054Z,27.80
2018-09-10T11:29:40.072Z,27.82
2018-09-10T11:30:40.098Z,27.92
2018-09-10T11:31:40.128Z,28.10
2018-09-10T11:32:40.145Z,27.63
2018-09-10T11:33:40.175Z,27.54
2018-09-10T11:34:40.213Z,27.75
2018-09-10T11:35:40.214Z,27.85
2018-09-10T11:36:40.243Z,27.87
2018-09-10T11:37:40.271Z,27.70
2018-09-10T11:38:40.287Z,27.90
2018-09-10T11:39:40.309Z,27.86
2018-09-10T11:40:40.339Z,28.07
2018-09-10T11:41:40.358Z,28.10
2018-09-10T11:42:40.384Z,28.02
2018-09-10T11:43:40.408Z,27.78
2018-09-10T11:44:40.427Z,27.17
2018-09-10T11:45:40.451Z,27.21
2018-09-10T11:46:40.552Z,27.29
2018-09-10T11:47:40.504Z,27.36
2018-09-10T11:48:40.529Z,27.52
2018-09-10T11:49:40.552Z,27.12
2018-09-10T11:50:40.580Z,27.07
2018-09-10T11:51:40.601Z,26.78
2018-09-10T11:52:40.619Z,27.20
2018-09-10T11:53:40.647Z,27.47
2018-09-10T11:54:40.713Z,27.51
2018-09-10T11:55:40.718Z,27.02
2018-09-10T11:56:40.714Z,26.81
2018-09-10T11:57:40.741Z,26.97
2018-09-10T11:58:40.760Z,27.02
2018-09-10T11:59:40.794Z,27.22
2018-09-10T12:00:40.809Z,27.12
2018-09-10T12:01:40.872Z,26.95
2018-09-10T12:02:40.857Z,26.43
2018-09-10T12:03:40.877Z,26.65
2018-09-10T12:04:40.904Z,26.92
2018-09-10T12:05:40.926Z,26.84
2018-09-10T12:06:40.961Z,26.92
2018-09-10T12:07:40.977Z,26.38
2018-09-10T12:08:40.994Z,26.56
2018-09-10T12:09:41.022Z,26.75
2018-09-10T12:10:41.042Z,26.99
2018-09-10T12:11:41.072Z,26.99
2018-09-10T12:12:41.094Z,27.02
2018-09-10T12:13:41.167Z,26.77
2018-09-10T12:14:41.146Z,26.66
2018-09-10T12:15:41.162Z,26.65
2018-09-10T12:16:41.197Z,26.63
2018-09-10T12:17:41.209Z,26.81
2018-09-10T12:18:41.228Z,26.97
2018-09-10T12:19:41.254Z,26.96
2018-09-10T12:20:41.276Z,27.00
2018-09-10T12:21:41.386Z,26.99
2018-09-10T12:22:41.346Z,27.03
2018-09-10T12:23:41.355Z,27.00
2018-09-10T12:24:41.372Z,27.03
2018-09-10T12:25:41.399Z,27.10
2018-09-10T12:26:41.475Z,27.49
2018-09-10T12:27:41.448Z,27.49
2018-09-10T12:28:41.472Z,27.35
2018-09-10T12:29:41.490Z,26.92
2018-09-10T12:30:41.557Z,26.80
2018-09-10T12:31:41.540Z,27.27
2018-09-10T12:32:41.563Z,27.51
2018-09-10T12:33:41.587Z,27.52
2018-09-10T12:34:41.605Z,27.39
2018-09-10T12:35:41.632Z,27.51
2018-09-10T12:36:41.674Z,27.26
2018-09-10T12:37:41.674Z,26.77
2018-09-10T12:38:41.699Z,26.96
2018-09-10T12:39:41.757Z,26.96
2018-09-10T12:40:41.747Z,26.85
2018-09-10T12:41:41.774Z,26.96
2018-09-10T12:42:41.799Z,27.03
2018-09-10T12:43:41.815Z,26.81
2018-09-10T12:44:41.843Z,26.66
2018-09-10T12:45:41.867Z,26.43
2018-09-10T12:46:41.907Z,26.62
2018-09-10T12:47:41.911Z,26.75
2018-09-10T12:48:41.936Z,26.68
2018-09-10T12:49:41.958Z,26.63
2018-09-10T12:50:41.980Z,26.00
2018-09-10T12:51:42.010Z,26.09
2018-09-10T12:52:42.025Z,26.19